Time;durP1;ratioP1;P1;durP2;ratioP2;P2;SDS_P1;SDS_P2;PMS_P1;PMS_P2;Temp;Humidity;BMP_temperature;BMP_pressure;BME280_temperature;BME280_humidity;BME280_pressure;Samples;Min_cycle;Max_cycle;Signal;HPM_P1;HPM_P2
2023/11/27 00:01:43;;;;;;;23.02;11.27;;;;;;;;;;5013962;28;20635;-61
2023/11/27 00:04:10;;;;;;;21.00;10.60;;;;;;;;;;5013006;28;20447;-61
2023/11/27 00:06:44;;;;;;;24.75;11.85;;;;;;;;;;5014794;28;20073;-61
2023/11/27 00:09:11;;;;;;;;;;;;;;;;;;5017724;28;20065;-60
2023/11/27 00:11:45;;;;;;;28.93;11.17;;;;;;;;;;5019390;28;19924;-65
2023/11/27 00:14:12;;;;;;;;;;;;;;;;;;5018625;28;20500;-65
2023/11/27 00:17:07;;;;;;;25.20;10.95;;;;;;;;;;5017914;28;19964;-65
2023/11/27 00:19:34;;;;;;;21.67;10.63;;;;;;;;;;5020272;28;20057;-66
2023/11/27 00:22:01;;;;;;;23.85;10.27;;;;;;;;;;5017389;28;20119;-61
2023/11/27 00:24:36;;;;;;;20.38;9.75;;;;;;;;;;5018711;28;21530;-52
2023/11/27 00:27:03;;;;;;;22.30;9.45;;;;;;;;;;5018697;28;20749;-53
2023/11/27 00:29:37;;;;;;;21.52;9.60;;;;;;;;;;5019956;28;20774;-48
2023/11/27 00:32:05;;;;;;;20.75;10.05;;;;;;;;;;5019541;28;20061;-52
2023/11/27 00:34:32;;;;;;;19.00;8.77;;;;;;;;;;5012446;28;20127;-53
2023/11/27 00:37:07;;;;;;;17.00;8.25;;;;;;;;;;5018303;28;20456;-51
2023/11/27 00:39:34;;;;;;;15.82;8.18;;;;;;;;;;5017601;28;20069;-50
2023/11/27 00:42:10;;;;;;;16.98;7.50;;;;;;;;;;5017696;28;20057;-69
2023/11/27 00:44:37;;;;;;;18.38;7.30;;;;;;;;;;5018290;28;20492;-68
2023/11/27 00:47:09;;;;;;;17.08;6.80;;;;;;;;;;5018495;28;20131;-68
2023/11/27 00:49:43;;;;;;;17.88;6.80;;;;;;;;;;5017858;28;20429;-68
2023/11/27 00:52:10;;;;;;;;;;;;;;;;;;5018275;28;20049;-65
2023/11/27 00:54:44;;;;;;;16.30;7.95;;;;;;;;;;5014425;28;19933;-52
2023/11/27 00:57:11;;;;;;;;;;;;;;;;;;5017777;28;20045;-53
2023/11/27 00:59:40;;;;;;;11.47;5.70;;;;;;;;;;5015833;28;19925;-50
2023/11/27 01:02:14;;;;;;;14.90;7.70;;;;;;;;;;5015658;28;20081;-49
2023/11/27 01:04:42;;;;;;;15.65;6.70;;;;;;;;;;5012625;28;20072;-50
2023/11/27 01:07:16;;;;;;;15.45;5.95;;;;;;;;;;5017713;28;20075;-48
2023/11/27 01:09:43;;;;;;;;;;;;;;;;;;5013376;28;20128;-66
2023/11/27 01:12:10;;;;;;;9.57;5.17;;;;;;;;;;5018015;28;20010;-66
2023/11/27 01:14:44;;;;;;;12.45;5.55;;;;;;;;;;5012758;28;20077;-68
2023/11/27 01:17:11;;;;;;;;;;;;;;;;;;5018791;28;20606;-69
2023/11/27 01:19:38;;;;;;;9.13;5.13;;;;;;;;;;5015646;28;20035;-62
2023/11/27 01:22:12;;;;;;;8.88;4.85;;;;;;;;;;5017349;28;20104;-61
2023/11/27 01:24:39;;;;;;;;;;;;;;;;;;5019640;28;20492;-64
2023/11/27 01:27:06;;;;;;;6.43;3.40;;;;;;;;;;5016475;28;20078;-59
2023/11/27 01:29:40;;;;;;;8.13;3.57;;;;;;;;;;5014964;28;20064;-62
2023/11/27 01:32:07;;;;;;;5.35;2.97;;;;;;;;;;5018860;28;20085;-61
2023/11/27 01:34:41;;;;;;;5.97;2.73;;;;;;;;;;5017568;28;20045;-61
2023/11/27 01:37:09;;;;;;;5.47;2.97;;;;;;;;;;5017226;28;20058;-60
2023/11/27 01:39:36;;;;;;;7.63;2.40;;;;;;;;;;5030839;28;20054;-61
2023/11/27 01:42:10;;;;;;;6.38;2.40;;;;;;;;;;5016746;28;20582;-61
2023/11/27 01:44:38;;;;;;;4.95;2.83;;;;;;;;;;5017251;28;20061;-58
2023/11/27 01:47:11;;;;;;;5.78;2.80;;;;;;;;;;5019832;28;20111;-58
2023/11/27 01:49:38;;;;;;;;;;;;;;;;;;5016317;28;20472;-57
2023/11/27 01:52:07;;;;;;;6.80;3.17;;;;;;;;;;5014507;28;20046;-57
2023/11/27 01:54:41;;;;;;;6.20;2.80;;;;;;;;;;5014204;28;20049;-54
2023/11/27 01:57:12;;;;;;;5.07;2.72;;;;;;;;;;5016299;28;20199;-56
2023/11/27 01:59:46;;;;;;;5.18;2.75;;;;;;;;;;5015959;28;20061;-55
2023/11/27 02:02:17;;;;;;;6.45;2.97;;;;;;;;;;5016585;28;20061;-56
2023/11/27 02:04:44;;;;;;;6.20;2.70;;;;;;;;;;5012826;28;20475;-55
2023/11/27 02:07:18;;;;;;;4.65;2.60;;;;;;;;;;5017270;28;20081;-47
2023/11/27 02:09:45;;;;;;;3.80;2.70;;;;;;;;;;5018151;28;20576;-47
2023/11/27 02:12:19;;;;;;;7.83;3.00;;;;;;;;;;5018052;28;20065;-49
2023/11/27 02:14:48;;;;;;;;;;;;;;;;;;5015718;28;20045;-50
2023/11/27 02:17:15;;;;;;;6.07;2.67;;;;;;;;;;5016026;28;19929;-59
2023/11/27 02:19:49;;;;;;;5.10;2.57;;;;;;;;;;5013335;28;20107;-59
2023/11/27 02:22:16;;;;;;;;;;;;;;;;;;5012427;28;20068;-59
2023/11/27 02:24:50;;;;;;;4.20;2.60;;;;;;;;;;5017753;28;19924;-59
2023/11/27 02:27:17;;;;;;;;;;;;;;;;;;5018798;28;20051;-59
2023/11/27 02:29:54;;;;;;;4.63;2.43;;;;;;;;;;5016192;28;19921;-59
2023/11/27 02:32:21;;;;;;;;;;;;;;;;;;5014286;28;20112;-59
2023/11/27 02:34:48;;;;;;;3.60;2.40;;;;;;;;;;5019432;28;19965;-59
2023/11/27 02:37:22;;;;;;;4.80;2.33;;;;;;;;;;5017383;28;20053;-58
2023/11/27 02:39:49;;;;;;;;;;;;;;;;;;5016339;28;20064;-59
2023/11/27 02:42:23;;;;;;;5.10;2.40;;;;;;;;;;5019341;28;19928;-59
2023/11/27 02:44:52;;;;;;;;;;;;;;;;;;5016934;28;20115;-66
2023/11/27 02:47:21;;;;;;;4.30;2.00;;;;;;;;;;5018979;28;19929;-66
2023/11/27 02:49:55;;;;;;;5.17;2.30;;;;;;;;;;5013319;28;20146;-66
2023/11/27 02:52:29;;;;;;;;;;;;;;;;;;5014603;28;20057;-67
2023/11/27 02:55:05;;;;;;;4.77;2.30;;;;;;;;;;5016030;28;19925;-66
2023/11/27 02:57:32;;;;;;;3.77;2.07;;;;;;;;;;5014031;28;20596;-66
2023/11/27 03:00:00;;;;;;;6.38;2.40;;;;;;;;;;5020131;28;20050;-66
2023/11/27 03:02:34;;;;;;;4.53;2.23;;;;;;;;;;5021734;28;20642;-66
2023/11/27 03:05:02;;;;;;;3.80;2.30;;;;;;;;;;5015215;28;20065;-66
2023/11/27 03:07:37;;;;;;;7.67;2.60;;;;;;;;;;5018887;28;20073;-66
2023/11/27 03:10:04;;;;;;;4.03;2.30;;;;;;;;;;5018694;28;20053;-66
2023/11/27 03:12:31;;;;;;;7.03;2.67;;;;;;;;;;5021435;28;20089;-59
2023/11/27 03:15:06;;;;;;;5.97;2.43;;;;;;;;;;5018082;28;20508;-58
2023/11/27 03:17:33;;;;;;;4.23;2.40;;;;;;;;;;5018152;28;20061;-58
2023/11/27 03:20:00;;;;;;;6.67;2.57;;;;;;;;;;5017482;28;20977;-58
2023/11/27 03:22:34;;;;;;;4.83;2.53;;;;;;;;;;5016547;28;20054;-58
2023/11/27 03:25:01;;;;;;;4.47;2.70;;;;;;;;;;5021148;28;20064;-59
2023/11/27 03:27:35;;;;;;;7.10;2.80;;;;;;;;;;5017986;28;20123;-58
2023/11/27 03:30:03;;;;;;;4.77;2.50;;;;;;;;;;5019126;28;20056;-58
2023/11/27 03:32:32;;;;;;;5.80;2.20;;;;;;;;;;5019641;28;20057;-55
2023/11/27 03:35:08;;;;;;;6.53;2.70;;;;;;;;;;5020908;28;20060;-56
2023/11/27 03:37:35;;;;;;;6.47;2.60;;;;;;;;;;5015826;28;20450;-55
2023/11/27 03:40:09;;;;;;;4.37;2.60;;;;;;;;;;5020185;28;20504;-53
2023/11/27 03:42:36;;;;;;;;;;;;;;;;;;5019037;28;20144;-46
2023/11/27 03:45:04;;;;;;;7.30;2.43;;;;;;;;;;5020334;28;19974;-54
2023/11/27 03:47:38;;;;;;;6.17;2.53;;;;;;;;;;5017962;28;20069;-55
2023/11/27 03:50:06;;;;;;;8.00;2.63;;;;;;;;;;5018801;28;20056;-54
2023/11/27 03:52:47;;;;;;;4.57;2.10;;;;;;;;;;5014717;28;20061;-55
2023/11/27 03:55:14;;;;;;;9.17;2.67;;;;;;;;;;5016775;28;20478;-55
2023/11/27 03:57:48;;;;;;;4.63;2.23;;;;;;;;;;5017272;28;20053;-52
2023/11/27 04:00:17;;;;;;;6.00;2.57;;;;;;;;;;5002109;28;20054;-60
2023/11/27 04:02:44;;;;;;;5.43;2.40;;;;;;;;;;5018153;28;20073;-59
2023/11/27 04:05:19;;;;;;;7.77;2.40;;;;;;;;;;5016683;28;20537;-59
2023/11/27 04:07:47;;;;;;;4.57;2.30;;;;;;;;;;5020634;28;20057;-59
2023/11/27 04:10:21;;;;;;;5.57;2.37;;;;;;;;;;5022792;28;20064;-60
2023/11/27 04:12:49;;;;;;;5.77;2.40;;;;;;;;;;5021237;28;20068;-66
2023/11/27 04:15:16;;;;;;;;;;;;;;;;;;5019711;28;20061;-66
2023/11/27 04:17:50;;;;;;;4.30;2.27;;;;;;;;;;5022042;28;19952;-68
2023/11/27 04:20:17;;;;;;;3.93;2.93;;;;;;;;;;5017796;28;20432;-67
2023/11/27 04:22:51;;;;;;;5.57;2.43;;;;;;;;;;5019342;28;20057;-67
2023/11/27 04:25:18;;;;;;;;;;;;;;;;;;5015903;28;20053;-68
2023/11/27 04:27:45;;;;;;;3.93;2.13;;;;;;;;;;5015179;28;20069;-60
2023/11/27 04:30:19;;;;;;;3.63;2.37;;;;;;;;;;5021230;28;20080;-61
2023/11/27 04:32:48;;;;;;;5.23;2.13;;;;;;;;;;5017718;28;20520;-60
2023/11/27 04:35:23;;;;;;;3.80;2.33;;;;;;;;;;5017007;28;20139;-61
2023/11/27 04:37:50;;;;;;;4.73;2.50;;;;;;;;;;5015086;28;20061;-66
2023/11/27 04:40:17;;;;;;;;;;;;;;;;;;5017290;28;20048;-57
2023/11/27 04:42:52;;;;;;;4.17;3.00;;;;;;;;;;5017414;28;19931;-51
2023/11/27 04:45:26;;;;;;;4.30;2.30;;;;;;;;;;5020462;28;20042;-58
2023/11/27 04:48:00;;;;;;;3.70;1.80;;;;;;;;;;5015930;28;21988;-56
2023/11/27 04:50:41;;;;;;;3.80;2.17;;;;;;;;;;5019854;28;20108;-57
2023/11/27 04:53:16;;;;;;;3.40;2.58;;;;;;;;;;5014394;28;20049;-58
2023/11/27 04:55:43;;;;;;;3.77;2.10;;;;;;;;;;5004686;28;20171;-56
2023/11/27 04:58:10;;;;;;;;;;;;;;;;;;5012201;28;20107;-68
2023/11/27 05:00:44;;;;;;;5.73;2.90;;;;;;;;;;5014450;28;20841;-69
2023/11/27 05:03:11;;;;;;;4.33;2.30;;;;;;;;;;5016894;28;20131;-68
2023/11/27 05:05:38;;;;;;;5.20;3.03;;;;;;;;;;5019755;28;20057;-68
2023/11/27 05:08:13;;;;;;;4.07;2.40;;;;;;;;;;5019230;28;20045;-60
2023/11/27 05:10:40;;;;;;;5.27;2.27;;;;;;;;;;5014466;28;20147;-59
2023/11/27 05:13:16;;;;;;;5.80;2.50;;;;;;;;;;5018850;28;20056;-61
2023/11/27 05:15:43;;;;;;;4.80;2.60;;;;;;;;;;5020021;28;20049;-60
2023/11/27 05:18:12;;;;;;;7.90;2.80;;;;;;;;;;5013375;28;20056;-59
2023/11/27 05:20:46;;;;;;;5.57;2.83;;;;;;;;;;5015643;28;20682;-61
2023/11/27 05:23:13;;;;;;;7.30;2.50;;;;;;;;;;5014051;28;20061;-60
2023/11/27 05:25:47;;;;;;;3.57;2.33;;;;;;;;;;5013507;28;20061;-61
2023/11/27 05:28:15;;;;;;;3.93;2.37;;;;;;;;;;5012289;28;20671;-61
2023/11/27 05:30:42;;;;;;;;;;;;;;;;;;5016246;28;20049;-61
2023/11/27 05:33:16;;;;;;;4.80;2.40;;;;;;;;;;5014012;28;19928;-60
2023/11/27 05:35:43;;;;;;;4.43;2.43;;;;;;;;;;5018522;28;20061;-65
2023/11/27 05:38:10;;;;;;;;;;;;;;;;;;5014672;28;20061;-61
2023/11/27 05:40:44;;;;;;;4.80;2.57;;;;;;;;;;5015245;28;21125;-61
2023/11/27 05:43:11;;;;;;;5.97;2.73;;;;;;;;;;5014539;28;20050;-60
2023/11/27 05:45:45;;;;;;;4.17;2.43;;;;;;;;;;5014479;28;20057;-60
2023/11/27 05:48:12;;;;;;;6.60;2.50;;;;;;;;;;5015519;28;20471;-61
2023/11/27 05:50:41;;;;;;;4.87;2.80;;;;;;;;;;5013406;28;20052;-61
2023/11/27 05:53:22;;;;;;;9.90;2.80;;;;;;;;;;4996140;28;20058;-68
2023/11/27 05:55:49;;;;;;;5.40;2.90;;;;;;;;;;4992544;28;20054;-67
2023/11/27 05:58:23;;;;;;;6.97;2.67;;;;;;;;;;4995642;28;21976;-68
2023/11/27 06:00:50;;;;;;;3.93;2.20;;;;;;;;;;4986289;28;20087;-67
2023/11/27 06:03:18;;;;;;;5.10;2.40;;;;;;;;;;4989402;28;20045;-70
2023/11/27 06:05:52;;;;;;;4.47;2.30;;;;;;;;;;4997444;28;20065;-48
2023/11/27 06:08:20;;;;;;;7.30;2.40;;;;;;;;;;4994291;28;20524;-48
2023/11/27 06:10:47;;;;;;;4.17;2.40;;;;;;;;;;5013929;28;20061;-48
2023/11/27 06:13:21;;;;;;;3.90;2.30;;;;;;;;;;5000045;28;20472;-47
2023/11/27 06:15:48;;;;;;;7.87;2.97;;;;;;;;;;4999604;28;20057;-49
2023/11/27 06:18:22;;;;;;;5.50;2.50;;;;;;;;;;5013101;28;20061;-50
2023/11/27 06:20:50;;;;;;;4.20;2.10;;;;;;;;;;4997954;28;20104;-50
2023/11/27 06:23:17;;;;;;;8.40;2.30;;;;;;;;;;4998619;28;20843;-61
2023/11/27 06:25:51;;;;;;;3.97;2.13;;;;;;;;;;5000293;28;20049;-60
2023/11/27 06:28:18;;;;;;;4.93;2.17;;;;;;;;;;4999586;28;20144;-61
2023/11/27 06:30:52;;;;;;;3.00;2.17;;;;;;;;;;4998295;28;20085;-60
2023/11/27 06:33:20;;;;;;;3.30;2.10;;;;;;;;;;5000987;28;20065;-60
2023/11/27 06:35:49;;;;;;;4.60;2.40;;;;;;;;;;5004104;28;20136;-59
2023/11/27 06:38:23;;;;;;;5.47;2.40;;;;;;;;;;5000519;28;20077;-60
2023/11/27 06:40:50;;;;;;;5.37;2.70;;;;;;;;;;5001051;28;20046;-59
2023/11/27 06:43:24;;;;;;;3.13;2.10;;;;;;;;;;5003798;28;20468;-60
2023/11/27 06:45:52;;;;;;;3.47;2.20;;;;;;;;;;5002932;28;20050;-60
2023/11/27 06:48:20;;;;;;;2.40;1.90;;;;;;;;;;5001571;28;20464;-60
2023/11/27 06:51:01;;;;;;;3.23;1.97;;;;;;;;;;5006831;28;20112;-67
2023/11/27 06:53:35;;;;;;;2.63;1.87;;;;;;;;;;5022552;28;20061;-66
2023/11/27 06:56:09;;;;;;;3.47;2.03;;;;;;;;;;5022479;28;20107;-68
2023/11/27 06:58:43;;;;;;;4.77;2.20;;;;;;;;;;5024523;28;20440;-69
2023/11/27 07:01:17;;;;;;;5.93;2.20;;;;;;;;;;5023150;28;20115;-49
2023/11/27 07:03:44;;;;;;;5.27;2.17;;;;;;;;;;5022453;28;20057;-48
2023/11/27 07:06:11;;;;;;;;;;;;;;;;;;5022802;28;20068;-51
2023/11/27 07:08:45;;;;;;;3.50;2.20;;;;;;;;;;5020991;28;19967;-51
2023/11/27 07:11:12;;;;;;;3.33;2.17;;;;;;;;;;5020109;28;20064;-49
2023/11/27 07:13:47;;;;;;;4.97;2.27;;;;;;;;;;5022407;28;20157;-51
2023/11/27 07:16:15;;;;;;;3.27;1.93;;;;;;;;;;5035045;28;20061;-51
2023/11/27 07:18:42;;;;;;;6.23;2.50;;;;;;;;;;5023390;28;20072;-69
2023/11/27 07:21:16;;;;;;;3.63;2.43;;;;;;;;;;5023607;28;20104;-68
2023/11/27 07:23:44;;;;;;;3.20;2.30;;;;;;;;;;5021568;28;20053;-68
2023/11/27 07:26:18;;;;;;;3.77;2.00;;;;;;;;;;5002053;28;21022;-68
2023/11/27 07:28:45;;;;;;;3.17;2.10;;;;;;;;;;5018399;28;20131;-52
2023/11/27 07:31:12;;;;;;;;;;;;;;;;;;5022815;28;20045;-65
2023/11/27 07:33:46;;;;;;;5.40;2.20;;;;;;;;;;5023071;28;19921;-65
2023/11/27 07:36:13;;;;;;;4.13;2.50;;;;;;;;;;5022427;28;20060;-65
2023/11/27 07:38:50;;;;;;;4.90;2.37;;;;;;;;;;5020425;28;20061;-65
2023/11/27 07:41:19;;;;;;;5.20;2.47;;;;;;;;;;5021294;28;20522;-65
2023/11/27 07:43:50;;;;;;;10.80;2.60;;;;;;;;;;5022008;28;20049;-65
2023/11/27 07:46:25;;;;;;;10.30;3.23;;;;;;;;;;5023512;28;20053;-65
2023/11/27 07:48:52;;;;;;;4.57;2.27;;;;;;;;;;5020103;28;20069;-51
2023/11/27 07:51:33;;;;;;;3.33;2.00;;;;;;;;;;5019933;28;20065;-52
2023/11/27 07:54:07;;;;;;;4.20;2.47;;;;;;;;;;5021509;28;20099;-50
2023/11/27 07:56:41;;;;;;;3.43;2.40;;;;;;;;;;5017412;28;20045;-65
2023/11/27 07:59:09;;;;;;;6.85;2.35;;;;;;;;;;5018963;28;20062;-59
2023/11/27 08:01:37;;;;;;;4.67;2.67;;;;;;;;;;5022004;28;20644;-68
2023/11/27 08:04:11;;;;;;;4.93;2.67;;;;;;;;;;5023949;28;20049;-69
2023/11/27 08:06:39;;;;;;;7.00;2.90;;;;;;;;;;5021422;28;20057;-68
2023/11/27 08:09:12;;;;;;;5.23;2.97;;;;;;;;;;5021221;28;20061;-68
2023/11/27 08:11:41;;;;;;;5.53;2.70;;;;;;;;;;5021425;28;20154;-69
2023/11/27 08:14:10;;;;;;;6.23;3.00;;;;;;;;;;5019412;28;20415;-65
2023/11/27 08:16:48;;;;;;;3.73;2.33;;;;;;;;;;5020735;28;20053;-64
2023/11/27 08:19:16;;;;;;;6.67;2.67;;;;;;;;;;5020213;28;20049;-65
2023/11/27 08:21:50;;;;;;;5.93;2.60;;;;;;;;;;5021582;28;20052;-64
2023/11/27 08:24:17;;;;;;;;;;;;;;;;;;5021438;28;20176;-65
2023/11/27 08:26:49;;;;;;;4.27;2.33;;;;;;;;;;5020344;28;19971;-56
2023/11/27 08:29:25;;;;;;;3.13;2.33;;;;;;;;;;5015447;28;20053;-61
2023/11/27 08:31:58;;;;;;;4.50;2.60;;;;;;;;;;5018649;28;20535;-58
2023/11/27 08:34:33;;;;;;;7.67;3.27;;;;;;;;;;5021527;28;20061;-58
2023/11/27 08:37:04;;;;;;;5.40;3.57;;;;;;;;;;5022521;28;20042;-58
2023/11/27 08:39:32;;;;;;;8.97;3.70;;;;;;;;;;5020931;28;20067;-59
2023/11/27 08:42:07;;;;;;;8.13;3.30;;;;;;;;;;5019567;28;20439;-58
2023/11/27 08:44:34;;;;;;;7.20;3.63;;;;;;;;;;5020064;28;20119;-61
2023/11/27 08:47:08;;;;;;;8.80;4.43;;;;;;;;;;5020869;28;20057;-59
2023/11/27 08:49:36;;;;;;;6.50;3.53;;;;;;;;;;5019689;28;20826;-61
2023/11/27 08:52:03;;;;;;;11.52;3.95;;;;;;;;;;5020007;28;20064;-60
2023/11/27 08:54:44;;;;;;;5.70;3.20;;;;;;;;;;5020778;28;20045;-57
2023/11/27 08:57:11;;;;;;;8.10;3.73;;;;;;;;;;5019590;28;20119;-64
2023/11/27 08:59:45;;;;;;;7.53;3.63;;;;;;;;;;5017427;28;20049;-65
2023/11/27 09:02:12;;;;;;;5.80;3.05;;;;;;;;;;5022000;28;20500;-65
2023/11/27 09:04:46;;;;;;;5.10;3.05;;;;;;;;;;5019853;28;20049;-65
2023/11/27 09:07:13;;;;;;;;;;;;;;;;;;5018820;28;20072;-65
2023/11/27 09:09:42;;;;;;;5.97;3.08;;;;;;;;;;5018903;28;19929;-65
2023/11/27 09:12:16;;;;;;;5.60;3.58;;;;;;;;;;5019524;28;20095;-61
2023/11/27 09:14:43;;;;;;;8.15;3.50;;;;;;;;;;5018286;28;20536;-60
2023/11/27 09:17:17;;;;;;;8.18;3.45;;;;;;;;;;5018026;28;20135;-61
2023/11/27 09:19:45;;;;;;;7.13;3.83;;;;;;;;;;5018557;28;20046;-61
2023/11/27 09:22:13;;;;;;;6.13;3.67;;;;;;;;;;5019945;28;20054;-64
2023/11/27 09:24:48;;;;;;;5.13;3.10;;;;;;;;;;5020490;28;20149;-60
2023/11/27 09:27:15;;;;;;;6.88;2.95;;;;;;;;;;5016199;28;20788;-65
2023/11/27 09:29:49;;;;;;;7.93;3.28;;;;;;;;;;5016932;28;20107;-64
2023/11/27 09:32:16;;;;;;;6.95;3.17;;;;;;;;;;5018580;28;20053;-65
2023/11/27 09:34:44;;;;;;;5.10;2.60;;;;;;;;;;5018990;28;20057;-64
2023/11/27 09:37:18;;;;;;;5.00;2.75;;;;;;;;;;5019522;28;20127;-64
2023/11/27 09:39:45;;;;;;;;;;;;;;;;;;5019424;28;20104;-65
2023/11/27 09:42:19;;;;;;;5.57;2.53;;;;;;;;;;5019521;28;19929;-61
2023/11/27 09:44:47;;;;;;;5.43;2.92;;;;;;;;;;5016752;28;20502;-60
2023/11/27 09:47:14;;;;;;;;;;;;;;;;;;5019441;28;20077;-61
2023/11/27 09:49:50;;;;;;;5.18;2.83;;;;;;;;;;5018342;28;19932;-60
2023/11/27 09:52:30;;;;;;;4.68;2.60;;;;;;;;;;5019253;28;20085;-60
2023/11/27 09:55:05;;;;;;;6.55;2.97;;;;;;;;;;5030916;28;20054;-56
2023/11/27 09:57:34;;;;;;;7.35;3.08;;;;;;;;;;5019949;28;20068;-58
2023/11/27 10:00:07;;;;;;;9.95;2.90;;;;;;;;;;5016244;28;20424;-59
2023/11/27 10:02:41;;;;;;;4.80;3.00;;;;;;;;;;5016503;28;20060;-59
2023/11/27 10:05:09;;;;;;;4.90;2.95;;;;;;;;;;5018666;28;20145;-59
2023/11/27 10:07:46;;;;;;;7.65;3.78;;;;;;;;;;5017688;28;20080;-59
2023/11/27 10:10:16;;;;;;;4.85;2.78;;;;;;;;;;5020827;28;20752;-56
2023/11/27 10:12:50;;;;;;;3.60;2.30;;;;;;;;;;5018049;28;20064;-56
2023/11/27 10:15:27;;;;;;;3.20;2.40;;;;;;;;;;5017514;28;20882;-58
2023/11/27 10:17:59;;;;;;;5.78;2.53;;;;;;;;;;5020756;28;20511;-56
2023/11/27 10:20:35;;;;;;;4.68;2.45;;;;;;;;;;5018466;28;20045;-68
2023/11/27 10:23:02;;;;;;;3.60;2.28;;;;;;;;;;5015820;28;20061;-56
2023/11/27 10:25:36;;;;;;;3.00;2.28;;;;;;;;;;5014323;28;20054;-56
2023/11/27 10:28:06;;;;;;;4.68;2.40;;;;;;;;;;5015198;28;20415;-57
2023/11/27 10:30:33;;;;;;;3.15;2.40;;;;;;;;;;5017037;28;20034;-58
2023/11/27 10:33:07;;;;;;;2.80;2.20;;;;;;;;;;5015374;28;20057;-58
2023/11/27 10:35:36;;;;;;;8.05;2.55;;;;;;;;;;5018834;28;20085;-55
2023/11/27 10:38:04;;;;;;;5.50;2.38;;;;;;;;;;5017695;28;20065;-55
2023/11/27 10:40:38;;;;;;;3.20;2.38;;;;;;;;;;5018256;28;20045;-56
2023/11/27 10:43:09;;;;;;;;;;;;;;;;;;5015202;28;20139;-55
2023/11/27 10:45:44;;;;;;;3.03;2.38;;;;;;;;;;5021188;28;20023;-54
2023/11/27 10:48:12;;;;;;;3.25;2.38;;;;;;;;;;5014006;28;20088;-59
2023/11/27 10:50:41;;;;;;;5.18;2.30;;;;;;;;;;5014512;28;20140;-49
2023/11/27 10:53:25;;;;;;;2.72;2.00;;;;;;;;;;5015309;28;20767;-49
2023/11/27 10:55:52;;;;;;;5.83;1.93;;;;;;;;;;5016351;28;20147;-51
2023/11/27 10:58:27;;;;;;;3.47;2.45;;;;;;;;;;5016037;28;20317;-49
2023/11/27 11:00:58;;;;;;;3.17;2.35;;;;;;;;;;5018160;28;20515;-50
2023/11/27 11:03:33;;;;;;;3.72;2.50;;;;;;;;;;5018697;28;20136;-50
2023/11/27 11:06:00;;;;;;;3.45;2.50;;;;;;;;;;5017402;28;20049;-53
2023/11/27 11:08:35;;;;;;;4.15;2.50;;;;;;;;;;5013407;28;20120;-49
2023/11/27 11:11:06;;;;;;;3.60;2.88;;;;;;;;;;5021054;28;20668;-46
2023/11/27 11:13:34;;;;;;;4.82;2.60;;;;;;;;;;5016981;28;20057;-49
2023/11/27 11:16:13;;;;;;;3.80;2.53;;;;;;;;;;5020439;28;20489;-50
2023/11/27 11:18:51;;;;;;;4.50;2.72;;;;;;;;;;5020209;28;20068;-61
2023/11/27 11:21:39;;;;;;;3.70;2.60;;;;;;;;;;5020205;28;20061;-63
2023/11/27 11:24:25;;;;;;;4.05;2.63;;;;;;;;;;5022500;28;20056;-63
2023/11/27 11:27:16;;;;;;;8.43;2.78;;;;;;;;;;5020484;28;20073;-63
2023/11/27 11:29:45;;;;;;;6.68;2.97;;;;;;;;;;5017620;28;20057;-63
2023/11/27 11:32:20;;;;;;;6.63;2.50;;;;;;;;;;5017801;28;20123;-63
2023/11/27 11:34:50;;;;;;;3.88;2.60;;;;;;;;;;5023526;28;20081;-63
2023/11/27 11:37:18;;;;;;;2.97;2.10;;;;;;;;;;5020708;28;20053;-64
2023/11/27 11:39:54;;;;;;;4.72;2.90;;;;;;;;;;5020825;28;20049;-63
2023/11/27 11:42:32;;;;;;;3.78;2.70;;;;;;;;;;5020040;28;20064;-63
2023/11/27 11:47:51;;;;;;;5.88;2.60;;;;;;;;;;5021055;28;20057;-56
2023/11/27 11:50:27;;;;;;;4.22;2.47;;;;;;;;;;5022344;28;20171;-56
2023/11/27 11:53:18;;;;;;;2.88;2.28;;;;;;;;;;5018967;28;20061;-57
2023/11/27 11:55:53;;;;;;;2.90;2.15;;;;;;;;;;5017884;28;20053;-59
2023/11/27 11:58:22;;;;;;;3.78;2.63;;;;;;;;;;5017535;28;20136;-57
2023/11/27 12:01:02;;;;;;;3.67;2.40;;;;;;;;;;5019534;28;20543;-54
2023/11/27 12:03:34;;;;;;;4.28;2.22;;;;;;;;;;5017806;28;20119;-60
2023/11/27 12:06:13;;;;;;;;;;;;;;;;;;5019452;28;20049;-61
2023/11/27 12:08:45;;;;;;;5.45;3.17;;;;;;;;;;5019326;28;19925;-60
2023/11/27 12:11:22;;;;;;;4.10;2.40;;;;;;;;;;5022437;28;20103;-61
2023/11/27 12:13:51;;;;;;;5.60;2.60;;;;;;;;;;5021263;28;20176;-51
2023/11/27 12:16:25;;;;;;;3.75;2.58;;;;;;;;;;5021153;28;20146;-60
2023/11/27 12:18:54;;;;;;;4.85;2.60;;;;;;;;;;5021286;28;20053;-60
2023/11/27 12:21:22;;;;;;;4.63;2.55;;;;;;;;;;5018778;28;20056;-61
2023/11/27 12:23:57;;;;;;;6.15;2.25;;;;;;;;;;5018936;28;20107;-60
2023/11/27 12:26:25;;;;;;;4.20;2.35;;;;;;;;;;5019548;28;20116;-60
2023/11/27 12:28:58;;;;;;;6.40;2.50;;;;;;;;;;5018187;28;20057;-61
2023/11/27 12:31:27;;;;;;;6.72;3.05;;;;;;;;;;5019029;28;20076;-60
2023/11/27 12:33:56;;;;;;;5.25;2.42;;;;;;;;;;5018963;28;20519;-58
2023/11/27 12:36:31;;;;;;;3.38;2.55;;;;;;;;;;5020193;28;20056;-59
2023/11/27 12:38:58;;;;;;;3.60;2.53;;;;;;;;;;5018384;28;20107;-57
2023/11/27 12:41:32;;;;;;;3.75;2.30;;;;;;;;;;5020836;28;20119;-53
2023/11/27 12:44:19;;;;;;;3.85;2.20;;;;;;;;;;5015352;28;20060;-60
2023/11/27 12:46:55;;;;;;;4.15;2.60;;;;;;;;;;5014014;28;20757;-49
2023/11/27 12:49:33;;;;;;;4.05;1.73;;;;;;;;;;5018760;28;20116;-49
2023/11/27 12:52:14;;;;;;;3.83;2.53;;;;;;;;;;5033811;28;20088;-48
2023/11/27 12:54:41;;;;;;;4.13;2.50;;;;;;;;;;5016645;28;20052;-50
2023/11/27 12:57:15;;;;;;;3.80;2.17;;;;;;;;;;5020488;28;20072;-49
2023/11/27 12:59:46;;;;;;;3.20;1.77;;;;;;;;;;5021788;28;20500;-61
2023/11/27 13:02:17;;;;;;;5.55;2.58;;;;;;;;;;5020533;28;20053;-61
2023/11/27 13:04:53;;;;;;;3.65;2.10;;;;;;;;;;5020097;28;20088;-61
2023/11/27 13:07:22;;;;;;;5.53;2.25;;;;;;;;;;5022130;28;20128;-60
2023/11/27 13:09:55;;;;;;;4.82;2.50;;;;;;;;;;5017761;28;20534;-63
2023/11/27 13:12:29;;;;;;;3.67;2.33;;;;;;;;;;5017808;28;20095;-59
2023/11/27 13:15:10;;;;;;;6.32;2.60;;;;;;;;;;5017931;28;20139;-60
2023/11/27 13:17:44;;;;;;;2.92;2.33;;;;;;;;;;5020512;28;20049;-59
2023/11/27 13:20:17;;;;;;;3.05;2.10;;;;;;;;;;5019677;28;20061;-60
2023/11/27 13:22:51;;;;;;;4.13;2.25;;;;;;;;;;5021809;28;20489;-60
2023/11/27 13:25:23;;;;;;;7.47;3.10;;;;;;;;;;5017740;28;20096;-59
2023/11/27 13:28:16;;;;;;;4.55;2.50;;;;;;;;;;5016393;28;20049;-60
2023/11/27 13:30:45;;;;;;;8.02;2.90;;;;;;;;;;5018365;28;20067;-51
2023/11/27 13:33:18;;;;;;;6.75;2.50;;;;;;;;;;5017648;28;20504;-50
2023/11/27 13:35:45;;;;;;;6.28;2.60;;;;;;;;;;5020769;28;20152;-51
2023/11/27 13:38:19;;;;;;;6.20;2.90;;;;;;;;;;5017184;28;20045;-58
2023/11/27 13:40:56;;;;;;;4.93;2.53;;;;;;;;;;5016637;28;20064;-61
2023/11/27 13:43:30;;;;;;;4.40;2.60;;;;;;;;;;5016587;28;20049;-52
2023/11/27 13:45:57;;;;;;;;;;;;;;;;;;5018276;28;20049;-56
2023/11/27 13:48:33;;;;;;;4.45;2.38;;;;;;;;;;5016802;28;20677;-57
2023/11/27 13:51:12;;;;;;;6.07;2.38;;;;;;;;;;5021546;28;20049;-58
2023/11/27 13:53:54;;;;;;;3.47;2.30;;;;;;;;;;5018452;28;20119;-55
2023/11/27 13:56:22;;;;;;;4.88;2.42;;;;;;;;;;5015796;28;20080;-57
2023/11/27 13:58:55;;;;;;;6.18;2.20;;;;;;;;;;5018991;28;20104;-67
2023/11/27 14:01:22;;;;;;;;;;;;;;;;;;5018304;28;20052;-67
2023/11/27 14:03:50;;;;;;;3.97;2.35;;;;;;;;;;5018492;28;19925;-67
2023/11/27 14:06:28;;;;;;;4.30;2.45;;;;;;;;;;5014717;28;20578;-67
2023/11/27 14:09:03;;;;;;;5.28;2.60;;;;;;;;;;5016591;28;20565;-67
2023/11/27 14:11:45;;;;;;;7.05;2.80;;;;;;;;;;5016580;28;20148;-68
2023/11/27 14:14:21;;;;;;;5.38;2.45;;;;;;;;;;5019146;28;20065;-68
2023/11/27 14:17:17;;;;;;;6.50;2.38;;;;;;;;;;5030337;28;20050;-68
2023/11/27 14:22:55;;;;;;;5.55;2.50;;;;;;;;;;5019764;28;20049;-67
2023/11/27 14:25:45;;;;;;;5.78;2.75;;;;;;;;;;5018270;28;20460;-52
2023/11/27 14:28:30;;;;;;;3.90;2.55;;;;;;;;;;5019733;28;20137;-56
2023/11/27 14:30:58;;;;;;;5.10;2.70;;;;;;;;;;5017198;28;20046;-55
2023/11/27 14:33:32;;;;;;;6.07;2.55;;;;;;;;;;5017343;28;20060;-55
2023/11/27 14:35:59;;;;;;;4.00;2.60;;;;;;;;;;5016941;28;20054;-63
2023/11/27 14:38:27;;;;;;;6.30;2.95;;;;;;;;;;5019604;28;20069;-59
2023/11/27 14:41:04;;;;;;;4.18;2.42;;;;;;;;;;5015132;28;20472;-60
2023/11/27 14:43:37;;;;;;;3.17;2.17;;;;;;;;;;5016267;28;20106;-59
2023/11/27 14:46:10;;;;;;;4.45;2.55;;;;;;;;;;5014613;28;20049;-57
2023/11/27 14:48:44;;;;;;;5.47;2.92;;;;;;;;;;5017349;28;20419;-57
2023/11/27 14:51:12;;;;;;;7.68;2.65;;;;;;;;;;5020293;28;20136;-58
2023/11/27 14:53:47;;;;;;;5.72;2.45;;;;;;;;;;5019996;28;20057;-56
2023/11/27 14:56:25;;;;;;;4.20;2.45;;;;;;;;;;5020006;28;20076;-54
2023/11/27 14:58:52;;;;;;;4.00;2.50;;;;;;;;;;5021717;28;20065;-54
2023/11/27 15:01:33;;;;;;;7.25;2.72;;;;;;;;;;5023234;28;20151;-53
2023/11/27 15:04:10;;;;;;;5.78;3.03;;;;;;;;;;5021026;28;20076;-64
2023/11/27 15:06:44;;;;;;;5.93;2.47;;;;;;;;;;5023363;28;20111;-64
2023/11/27 15:11:54;;;;;;;4.00;2.30;;;;;;;;;;5023432;28;20068;-64
2023/11/27 15:14:25;;;;;;;;;;;;;;;;;;5021789;28;20084;-64
2023/11/27 15:16:59;;;;;;;5.93;2.90;;;;;;;;;;5023796;28;19921;-64
2023/11/27 15:19:27;;;;;;;5.13;2.77;;;;;;;;;;5022730;28;20143;-64
2023/11/27 15:22:00;;;;;;;4.40;2.87;;;;;;;;;;5023826;28;20057;-51
2023/11/27 15:24:29;;;;;;;;;;;;;;;;;;5021600;28;20148;-48
2023/11/27 15:27:10;;;;;;;8.97;3.10;;;;;;;;;;5024359;28;19929;-51
2023/11/27 15:29:38;;;;;;;4.30;2.60;;;;;;;;;;5015049;28;20061;-49